sensor_id;sensor_type;location;lat;lon;timestamp;temperature;humidity
14097;DHT22;7125;48.106;11.544;2023-07-31T00:02:01;16.80;99.90
14097;DHT22;7125;48.106;11.544;2023-07-31T00:04:29;16.70;99.90
14097;DHT22;7125;48.106;11.544;2023-07-31T00:06:56;16.70;99.90
14097;DHT22;7125;48.106;11.544;2023-07-31T00:09:23;16.60;99.90
14097;DHT22;7125;48.106;11.544;2023-07-31T00:11:51;16.50;99.90
14097;DHT22;7125;48.106;11.544;2023-07-31T00:14:18;16.50;99.90
14097;DHT22;7125;48.106;11.544;2023-07-31T00:16:44;16.40;99.90
14097;DHT22;7125;48.106;11.544;2023-07-31T00:19:11;16.30;99.90
14097;DHT22;7125;48.106;11.544;2023-07-31T00:21:41;16.20;99.90
14097;DHT22;7125;48.106;11.544;2023-07-31T00:24:08;16.20;99.90
14097;DHT22;7125;48.106;11.544;2023-07-31T00:26:35;16.10;99.90
14097;DHT22;7125;48.106;11.544;2023-07-31T00:29:01;16.00;99.90
14097;DHT22;7125;48.106;11.544;2023-07-31T00:31:28;16.00;99.90
14097;DHT22;7125;48.106;11.544;2023-07-31T00:33:57;15.90;99.90
14097;DHT22;7125;48.106;11.544;2023-07-31T00:36:23;15.80;99.90
14097;DHT22;7125;48.106;11.544;2023-07-31T00:38:52;15.80;99.90
14097;DHT22;7125;48.106;11.544;2023-07-31T00:41:20;15.80;99.90
14097;DHT22;7125;48.106;11.544;2023-07-31T00:43:48;15.70;99.90
14097;DHT22;7125;48.106;11.544;2023-07-31T00:46:20;15.70;99.90
14097;DHT22;7125;48.106;11.544;2023-07-31T00:48:50;15.60;99.90
14097;DHT22;7125;48.106;11.544;2023-07-31T00:51:31;15.60;99.90
14097;DHT22;7125;48.106;11.544;2023-07-31T00:54:04;15.50;99.90
14097;DHT22;7125;48.106;11.544;2023-07-31T00:56:32;15.50;99.90
14097;DHT22;7125;48.106;11.544;2023-07-31T00:59:00;15.50;99.90
14097;DHT22;7125;48.106;11.544;2023-07-31T01:01:28;15.50;99.90
14097;DHT22;7125;48.106;11.544;2023-07-31T01:03:56;15.40;99.90
14097;DHT22;7125;48.106;11.544;2023-07-31T01:06:30;15.40;99.90
14097;DHT22;7125;48.106;11.544;2023-07-31T01:09:03;15.40;99.90
14097;DHT22;7125;48.106;11.544;2023-07-31T01:11:32;15.30;99.90
14097;DHT22;7125;48.106;11.544;2023-07-31T01:14:00;15.30;99.90
14097;DHT22;7125;48.106;11.544;2023-07-31T01:16:27;15.30;99.90
14097;DHT22;7125;48.106;11.544;2023-07-31T01:18:56;15.30;99.90
14097;DHT22;7125;48.106;11.544;2023-07-31T01:21:38;15.30;99.90
14097;DHT22;7125;48.106;11.544;2023-07-31T01:24:27;15.20;99.90
14097;DHT22;7125;48.106;11.544;2023-07-31T01:27:02;15.20;99.90
14097;DHT22;7125;48.106;11.544;2023-07-31T01:29:36;15.20;99.90
14097;DHT22;7125;48.106;11.544;2023-07-31T01:32:07;15.20;99.90
14097;DHT22;7125;48.106;11.544;2023-07-31T01:34:37;15.20;99.90
14097;DHT22;7125;48.106;11.544;2023-07-31T01:37:04;15.30;99.90
14097;DHT22;7125;48.106;11.544;2023-07-31T01:39:31;15.30;99.90
14097;DHT22;7125;48.106;11.544;2023-07-31T01:42:00;15.30;99.90
14097;DHT22;7125;48.106;11.544;2023-07-31T01:44:28;15.30;99.90
14097;DHT22;7125;48.106;11.544;2023-07-31T01:46:54;15.30;99.90
14097;DHT22;7125;48.106;11.544;2023-07-31T01:49:22;15.30;99.90
14097;DHT22;7125;48.106;11.544;2023-07-31T01:51:49;15.40;99.90
14097;DHT22;7125;48.106;11.544;2023-07-31T01:54:16;15.40;99.90
14097;DHT22;7125;48.106;11.544;2023-07-31T01:56:43;15.40;99.90
14097;DHT22;7125;48.106;11.544;2023-07-31T01:59:11;15.40;99.90
14097;DHT22;7125;48.106;11.544;2023-07-31T02:01:38;15.50;99.90
14097;DHT22;7125;48.106;11.544;2023-07-31T02:04:05;15.50;99.90
14097;DHT22;7125;48.106;11.544;2023-07-31T02:06:32;15.50;99.90
14097;DHT22;7125;48.106;11.544;2023-07-31T02:08:59;15.50;99.90
14097;DHT22;7125;48.106;11.544;2023-07-31T02:11:26;15.60;99.90
14097;DHT22;7125;48.106;11.544;2023-07-31T02:13:53;15.60;99.90
14097;DHT22;7125;48.106;11.544;2023-07-31T02:16:22;15.60;99.90
14097;DHT22;7125;48.106;11.544;2023-07-31T02:18:48;15.60;99.90
14097;DHT22;7125;48.106;11.544;2023-07-31T02:21:15;15.60;99.90
14097;DHT22;7125;48.106;11.544;2023-07-31T02:23:42;15.60;99.90
14097;DHT22;7125;48.106;11.544;2023-07-31T02:26:10;15.60;99.90
14097;DHT22;7125;48.106;11.544;2023-07-31T02:28:37;15.70;99.90
14097;DHT22;7125;48.106;11.544;2023-07-31T02:31:04;15.70;99.90
14097;DHT22;7125;48.106;11.544;2023-07-31T02:33:32;15.70;99.90
14097;DHT22;7125;48.106;11.544;2023-07-31T02:35:59;15.70;99.90
14097;DHT22;7125;48.106;11.544;2023-07-31T02:38:26;15.70;99.90
14097;DHT22;7125;48.106;11.544;2023-07-31T02:40:53;15.60;99.90
14097;DHT22;7125;48.106;11.544;2023-07-31T02:43:20;15.70;99.90
14097;DHT22;7125;48.106;11.544;2023-07-31T02:45:51;15.70;99.90
14097;DHT22;7125;48.106;11.544;2023-07-31T02:48:18;15.60;99.90
14097;DHT22;7125;48.106;11.544;2023-07-31T02:50:48;15.60;99.90
14097;DHT22;7125;48.106;11.544;2023-07-31T02:53:15;15.60;99.90
14097;DHT22;7125;48.106;11.544;2023-07-31T02:55:42;15.60;99.90
14097;DHT22;7125;48.106;11.544;2023-07-31T02:58:09;15.50;99.90
14097;DHT22;7125;48.106;11.544;2023-07-31T03:00:36;15.50;99.90
14097;DHT22;7125;48.106;11.544;2023-07-31T03:03:08;15.40;99.90
14097;DHT22;7125;48.106;11.544;2023-07-31T03:05:35;15.40;99.90
14097;DHT22;7125;48.106;11.544;2023-07-31T03:08:04;15.40;99.90
14097;DHT22;7125;48.106;11.544;2023-07-31T03:10:31;15.30;99.90
14097;DHT22;7125;48.106;11.544;2023-07-31T03:12:58;15.30;99.90
14097;DHT22;7125;48.106;11.544;2023-07-31T03:15:25;15.20;99.90
14097;DHT22;7125;48.106;11.544;2023-07-31T03:17:52;15.20;99.90
14097;DHT22;7125;48.106;11.544;2023-07-31T03:20:18;15.10;99.90
14097;DHT22;7125;48.106;11.544;2023-07-31T03:22:45;15.10;99.90
14097;DHT22;7125;48.106;11.544;2023-07-31T03:25:14;15.10;99.90
14097;DHT22;7125;48.106;11.544;2023-07-31T03:27:41;15.00;99.90
14097;DHT22;7125;48.106;11.544;2023-07-31T03:30:08;15.00;99.90
14097;DHT22;7125;48.106;11.544;2023-07-31T03:32:36;15.00;99.90
14097;DHT22;7125;48.106;11.544;2023-07-31T03:35:04;14.90;99.90
14097;DHT22;7125;48.106;11.544;2023-07-31T03:37:31;14.90;99.90
14097;DHT22;7125;48.106;11.544;2023-07-31T03:39:58;14.90;99.90
14097;DHT22;7125;48.106;11.544;2023-07-31T03:42:26;14.80;99.90
14097;DHT22;7125;48.106;11.544;2023-07-31T03:44:53;14.90;99.90
14097;DHT22;7125;48.106;11.544;2023-07-31T03:47:20;14.80;99.90
14097;DHT22;7125;48.106;11.544;2023-07-31T03:49:48;14.80;99.90
14097;DHT22;7125;48.106;11.544;2023-07-31T03:52:15;14.80;99.90
14097;DHT22;7125;48.106;11.544;2023-07-31T03:54:42;14.80;99.90
14097;DHT22;7125;48.106;11.544;2023-07-31T03:57:10;14.80;99.90
14097;DHT22;7125;48.106;11.544;2023-07-31T03:59:38;14.80;99.90
14097;DHT22;7125;48.106;11.544;2023-07-31T04:02:05;14.80;99.90
14097;DHT22;7125;48.106;11.544;2023-07-31T04:04:32;14.80;99.90
14097;DHT22;7125;48.106;11.544;2023-07-31T04:06:59;14.80;99.90
14097;DHT22;7125;48.106;11.544;2023-07-31T04:09:26;14.80;99.90
14097;DHT22;7125;48.106;11.544;2023-07-31T04:11:52;14.80;99.90
14097;DHT22;7125;48.106;11.544;2023-07-31T04:14:19;14.80;99.90
14097;DHT22;7125;48.106;11.544;2023-07-31T04:16:48;14.80;99.90
14097;DHT22;7125;48.106;11.544;2023-07-31T04:19:15;14.80;99.90
14097;DHT22;7125;48.106;11.544;2023-07-31T04:21:42;14.80;99.90
14097;DHT22;7125;48.106;11.544;2023-07-31T04:24:09;14.80;99.90
14097;DHT22;7125;48.106;11.544;2023-07-31T04:26:36;14.80;99.90
14097;DHT22;7125;48.106;11.544;2023-07-31T04:29:03;14.80;99.90
14097;DHT22;7125;48.106;11.544;2023-07-31T04:31:29;14.80;99.90
14097;DHT22;7125;48.106;11.544;2023-07-31T04:33:58;14.90;99.90
14097;DHT22;7125;48.106;11.544;2023-07-31T04:36:25;14.90;99.90
14097;DHT22;7125;48.106;11.544;2023-07-31T04:38:52;15.00;99.90
14097;DHT22;7125;48.106;11.544;2023-07-31T04:41:18;15.00;99.90
14097;DHT22;7125;48.106;11.544;2023-07-31T04:43:45;15.00;99.90
14097;DHT22;7125;48.106;11.544;2023-07-31T04:46:12;15.00;99.90
14097;DHT22;7125;48.106;11.544;2023-07-31T04:48:39;15.10;99.90
14097;DHT22;7125;48.106;11.544;2023-07-31T04:51:07;15.00;99.90
14097;DHT22;7125;48.106;11.544;2023-07-31T04:53:35;15.10;99.90
14097;DHT22;7125;48.106;11.544;2023-07-31T04:56:02;15.10;99.90
14097;DHT22;7125;48.106;11.544;2023-07-31T04:58:29;15.10;99.90
14097;DHT22;7125;48.106;11.544;2023-07-31T05:00:56;15.20;99.90
14097;DHT22;7125;48.106;11.544;2023-07-31T05:03:23;15.20;99.90
14097;DHT22;7125;48.106;11.544;2023-07-31T05:05:50;15.20;99.90
14097;DHT22;7125;48.106;11.544;2023-07-31T05:08:18;15.30;99.90
14097;DHT22;7125;48.106;11.544;2023-07-31T05:10:45;15.30;99.90
14097;DHT22;7125;48.106;11.544;2023-07-31T05:13:12;15.40;99.90
14097;DHT22;7125;48.106;11.544;2023-07-31T05:15:38;15.40;99.90
14097;DHT22;7125;48.106;11.544;2023-07-31T05:18:05;15.50;99.90
14097;DHT22;7125;48.106;11.544;2023-07-31T05:20:32;15.50;99.90
14097;DHT22;7125;48.106;11.544;2023-07-31T05:22:59;15.60;99.90
14097;DHT22;7125;48.106;11.544;2023-07-31T05:25:27;15.60;99.90
14097;DHT22;7125;48.106;11.544;2023-07-31T05:27:54;15.70;99.90
14097;DHT22;7125;48.106;11.544;2023-07-31T05:30:21;15.80;99.90
14097;DHT22;7125;48.106;11.544;2023-07-31T05:32:48;15.80;99.90
14097;DHT22;7125;48.106;11.544;2023-07-31T05:35:15;15.90;99.90
14097;DHT22;7125;48.106;11.544;2023-07-31T05:37:42;16.00;99.90
14097;DHT22;7125;48.106;11.544;2023-07-31T05:40:09;16.10;99.90
14097;DHT22;7125;48.106;11.544;2023-07-31T05:42:38;16.20;99.90
14097;DHT22;7125;48.106;11.544;2023-07-31T05:45:06;16.30;99.90
14097;DHT22;7125;48.106;11.544;2023-07-31T05:47:33;16.40;99.90
14097;DHT22;7125;48.106;11.544;2023-07-31T05:50:00;16.50;99.90
14097;DHT22;7125;48.106;11.544;2023-07-31T05:52:27;16.60;99.90
14097;DHT22;7125;48.106;11.544;2023-07-31T05:54:54;16.60;99.90
14097;DHT22;7125;48.106;11.544;2023-07-31T05:57:21;16.70;99.90
14097;DHT22;7125;48.106;11.544;2023-07-31T05:59:49;16.90;99.90
14097;DHT22;7125;48.106;11.544;2023-07-31T06:02:16;16.90;99.90
14097;DHT22;7125;48.106;11.544;2023-07-31T06:04:43;17.00;99.90
14097;DHT22;7125;48.106;11.544;2023-07-31T06:07:10;17.20;99.90
14097;DHT22;7125;48.106;11.544;2023-07-31T06:09:37;17.30;99.90
14097;DHT22;7125;48.106;11.544;2023-07-31T06:12:05;17.30;99.90
14097;DHT22;7125;48.106;11.544;2023-07-31T06:14:32;17.30;99.90
14097;DHT22;7125;48.106;11.544;2023-07-31T06:17:00;17.40;99.90
14097;DHT22;7125;48.106;11.544;2023-07-31T06:19:27;17.40;99.90
14097;DHT22;7125;48.106;11.544;2023-07-31T06:21:54;17.50;99.90
14097;DHT22;7125;48.106;11.544;2023-07-31T06:24:21;17.50;99.90
14097;DHT22;7125;48.106;11.544;2023-07-31T06:26:49;17.50;99.90
14097;DHT22;7125;48.106;11.544;2023-07-31T06:29:16;17.60;99.90
14097;DHT22;7125;48.106;11.544;2023-07-31T06:31:43;17.70;99.90
14097;DHT22;7125;48.106;11.544;2023-07-31T06:34:12;17.70;99.90
14097;DHT22;7125;48.106;11.544;2023-07-31T06:36:39;17.80;99.90
14097;DHT22;7125;48.106;11.544;2023-07-31T06:39:06;17.80;99.90
14097;DHT22;7125;48.106;11.544;2023-07-31T06:41:34;17.80;99.90
14097;DHT22;7125;48.106;11.544;2023-07-31T06:44:05;17.80;99.90
14097;DHT22;7125;48.106;11.544;2023-07-31T06:46:32;17.80;99.90
14097;DHT22;7125;48.106;11.544;2023-07-31T06:48:59;17.80;99.90
14097;DHT22;7125;48.106;11.544;2023-07-31T06:51:27;17.80;99.90
14097;DHT22;7125;48.106;11.544;2023-07-31T06:53:57;17.80;99.90
14097;DHT22;7125;48.106;11.544;2023-07-31T06:56:24;17.80;99.90
14097;DHT22;7125;48.106;11.544;2023-07-31T06:58:51;17.80;99.90
14097;DHT22;7125;48.106;11.544;2023-07-31T07:01:18;17.90;99.90
14097;DHT22;7125;48.106;11.544;2023-07-31T07:03:45;17.90;99.90
14097;DHT22;7125;48.106;11.544;2023-07-31T07:06:12;18.00;99.90
14097;DHT22;7125;48.106;11.544;2023-07-31T07:08:41;18.00;99.90
14097;DHT22;7125;48.106;11.544;2023-07-31T07:11:07;18.10;99.90
14097;DHT22;7125;48.106;11.544;2023-07-31T07:13:35;18.10;99.90
14097;DHT22;7125;48.106;11.544;2023-07-31T07:16:02;18.10;99.90
14097;DHT22;7125;48.106;11.544;2023-07-31T07:18:29;18.20;99.90
14097;DHT22;7125;48.106;11.544;2023-07-31T07:20:56;18.20;99.90
14097;DHT22;7125;48.106;11.544;2023-07-31T07:23:23;18.30;99.90
14097;DHT22;7125;48.106;11.544;2023-07-31T07:25:53;18.40;99.90
14097;DHT22;7125;48.106;11.544;2023-07-31T07:28:20;18.50;99.90
14097;DHT22;7125;48.106;11.544;2023-07-31T07:30:51;18.50;99.90
14097;DHT22;7125;48.106;11.544;2023-07-31T07:33:18;18.60;99.90
14097;DHT22;7125;48.106;11.544;2023-07-31T07:35:45;18.70;99.90
14097;DHT22;7125;48.106;11.544;2023-07-31T07:38:14;18.80;99.90
14097;DHT22;7125;48.106;11.544;2023-07-31T07:40:41;18.80;99.90
14097;DHT22;7125;48.106;11.544;2023-07-31T07:43:10;18.90;99.90
14097;DHT22;7125;48.106;11.544;2023-07-31T07:45:37;19.00;99.90
14097;DHT22;7125;48.106;11.544;2023-07-31T07:48:04;19.00;99.90
14097;DHT22;7125;48.106;11.544;2023-07-31T07:50:31;19.00;99.90
14097;DHT22;7125;48.106;11.544;2023-07-31T07:52:58;19.00;99.90
14097;DHT22;7125;48.106;11.544;2023-07-31T07:55:26;19.00;99.90
14097;DHT22;7125;48.106;11.544;2023-07-31T07:57:53;19.10;99.90
14097;DHT22;7125;48.106;11.544;2023-07-31T08:00:21;19.00;99.90
14097;DHT22;7125;48.106;11.544;2023-07-31T08:02:48;19.00;99.90
14097;DHT22;7125;48.106;11.544;2023-07-31T08:05:15;19.10;99.90
14097;DHT22;7125;48.106;11.544;2023-07-31T08:07:43;19.10;99.90
14097;DHT22;7125;48.106;11.544;2023-07-31T08:10:10;19.20;99.90
14097;DHT22;7125;48.106;11.544;2023-07-31T08:12:36;19.40;99.90
14097;DHT22;7125;48.106;11.544;2023-07-31T08:15:04;19.50;99.90
14097;DHT22;7125;48.106;11.544;2023-07-31T08:17:33;19.60;99.90
14097;DHT22;7125;48.106;11.544;2023-07-31T08:20:00;19.80;99.90
14097;DHT22;7125;48.106;11.544;2023-07-31T08:22:27;19.90;99.90
14097;DHT22;7125;48.106;11.544;2023-07-31T08:24:54;19.90;99.90
14097;DHT22;7125;48.106;11.544;2023-07-31T08:27:20;19.90;99.90
14097;DHT22;7125;48.106;11.544;2023-07-31T08:29:47;20.00;99.90
14097;DHT22;7125;48.106;11.544;2023-07-31T08:32:14;20.10;99.90
14097;DHT22;7125;48.106;11.544;2023-07-31T08:34:43;20.10;99.90
14097;DHT22;7125;48.106;11.544;2023-07-31T08:37:10;20.10;99.90
14097;DHT22;7125;48.106;11.544;2023-07-31T08:39:37;20.10;99.90
14097;DHT22;7125;48.106;11.544;2023-07-31T08:42:08;20.00;99.90
14097;DHT22;7125;48.106;11.544;2023-07-31T08:44:35;19.90;99.90
14097;DHT22;7125;48.106;11.544;2023-07-31T08:47:03;19.90;99.90
14097;DHT22;7125;48.106;11.544;2023-07-31T08:49:31;19.80;99.90
14097;DHT22;7125;48.106;11.544;2023-07-31T08:51:59;19.80;99.90
14097;DHT22;7125;48.106;11.544;2023-07-31T08:54:26;19.70;99.90
14097;DHT22;7125;48.106;11.544;2023-07-31T08:56:57;19.70;99.90
14097;DHT22;7125;48.106;11.544;2023-07-31T08:59:26;19.60;99.90
14097;DHT22;7125;48.106;11.544;2023-07-31T09:01:55;19.60;99.90
14097;DHT22;7125;48.106;11.544;2023-07-31T09:04:25;19.50;99.90
14097;DHT22;7125;48.106;11.544;2023-07-31T09:06:57;19.40;99.90
14097;DHT22;7125;48.106;11.544;2023-07-31T09:09:27;19.40;99.90
14097;DHT22;7125;48.106;11.544;2023-07-31T09:11:55;19.40;99.90
14097;DHT22;7125;48.106;11.544;2023-07-31T09:14:25;19.50;99.90
14097;DHT22;7125;48.106;11.544;2023-07-31T09:16:54;19.60;99.90
14097;DHT22;7125;48.106;11.544;2023-07-31T09:19:25;19.60;99.90
14097;DHT22;7125;48.106;11.544;2023-07-31T09:21:53;19.60;99.90
14097;DHT22;7125;48.106;11.544;2023-07-31T09:24:32;19.70;99.90
14097;DHT22;7125;48.106;11.544;2023-07-31T09:27:01;19.80;99.90
14097;DHT22;7125;48.106;11.544;2023-07-31T09:29:28;19.90;99.90
14097;DHT22;7125;48.106;11.544;2023-07-31T09:31:56;20.00;99.90
14097;DHT22;7125;48.106;11.544;2023-07-31T09:34:29;20.20;99.90
14097;DHT22;7125;48.106;11.544;2023-07-31T09:37:01;20.30;99.90
14097;DHT22;7125;48.106;11.544;2023-07-31T09:39:29;20.40;99.90
14097;DHT22;7125;48.106;11.544;2023-07-31T09:42:00;20.50;99.90
14097;DHT22;7125;48.106;11.544;2023-07-31T09:44:39;20.50;99.90
14097;DHT22;7125;48.106;11.544;2023-07-31T09:47:21;20.60;99.90
14097;DHT22;7125;48.106;11.544;2023-07-31T09:49:50;20.70;99.90
14097;DHT22;7125;48.106;11.544;2023-07-31T09:52:17;20.80;99.90
14097;DHT22;7125;48.106;11.544;2023-07-31T09:54:45;20.90;99.90
14097;DHT22;7125;48.106;11.544;2023-07-31T09:57:16;21.00;99.90
14097;DHT22;7125;48.106;11.544;2023-07-31T09:59:46;21.00;99.90
14097;DHT22;7125;48.106;11.544;2023-07-31T10:02:21;21.10;99.90
14097;DHT22;7125;48.106;11.544;2023-07-31T10:04:49;21.10;99.70
14097;DHT22;7125;48.106;11.544;2023-07-31T10:07:17;21.20;99.90
14097;DHT22;7125;48.106;11.544;2023-07-31T10:09:47;21.20;99.90
14097;DHT22;7125;48.106;11.544;2023-07-31T10:12:15;21.30;99.90
14097;DHT22;7125;48.106;11.544;2023-07-31T10:14:43;21.20;99.40
14097;DHT22;7125;48.106;11.544;2023-07-31T10:17:11;21.20;99.70
14097;DHT22;7125;48.106;11.544;2023-07-31T10:19:45;21.30;98.70
14097;DHT22;7125;48.106;11.544;2023-07-31T10:22:24;21.40;99.50
14097;DHT22;7125;48.106;11.544;2023-07-31T10:24:55;21.50;99.20
14097;DHT22;7125;48.106;11.544;2023-07-31T10:27:24;21.60;97.60
14097;DHT22;7125;48.106;11.544;2023-07-31T10:29:55;21.60;98.60
14097;DHT22;7125;48.106;11.544;2023-07-31T10:32:23;21.60;98.50
14097;DHT22;7125;48.106;11.544;2023-07-31T10:34:54;21.60;97.90
14097;DHT22;7125;48.106;11.544;2023-07-31T10:37:25;21.60;97.90
14097;DHT22;7125;48.106;11.544;2023-07-31T10:39:59;21.80;97.10
14097;DHT22;7125;48.106;11.544;2023-07-31T10:42:33;21.90;99.20
14097;DHT22;7125;48.106;11.544;2023-07-31T10:45:02;22.00;97.40
14097;DHT22;7125;48.106;11.544;2023-07-31T10:47:30;21.90;96.40
14097;DHT22;7125;48.106;11.544;2023-07-31T10:50:16;21.90;96.90
14097;DHT22;7125;48.106;11.544;2023-07-31T10:52:46;21.90;96.20
14097;DHT22;7125;48.106;11.544;2023-07-31T10:55:23;21.80;96.40
14097;DHT22;7125;48.106;11.544;2023-07-31T10:57:50;21.80;95.50
14097;DHT22;7125;48.106;11.544;2023-07-31T11:00:25;21.80;96.00
14097;DHT22;7125;48.106;11.544;2023-07-31T11:02:57;21.70;95.30
14097;DHT22;7125;48.106;11.544;2023-07-31T11:05:40;21.70;96.10
14097;DHT22;7125;48.106;11.544;2023-07-31T11:08:11;21.60;95.90
14097;DHT22;7125;48.106;11.544;2023-07-31T11:10:42;21.70;96.70
14097;DHT22;7125;48.106;11.544;2023-07-31T11:13:09;21.70;95.60
14097;DHT22;7125;48.106;11.544;2023-07-31T11:15:37;21.70;96.30
14097;DHT22;7125;48.106;11.544;2023-07-31T11:18:06;21.60;96.00
14097;DHT22;7125;48.106;11.544;2023-07-31T11:20:35;21.70;96.60
14097;DHT22;7125;48.106;11.544;2023-07-31T11:23:06;21.80;97.40
14097;DHT22;7125;48.106;11.544;2023-07-31T11:25:37;22.00;95.70
14097;DHT22;7125;48.106;11.544;2023-07-31T11:28:10;22.20;96.30
14097;DHT22;7125;48.106;11.544;2023-07-31T11:30:37;22.40;95.90
14097;DHT22;7125;48.106;11.544;2023-07-31T11:33:06;22.50;93.60
14097;DHT22;7125;48.106;11.544;2023-07-31T11:35:35;22.70;94.60
14097;DHT22;7125;48.106;11.544;2023-07-31T11:38:03;22.90;94.90
14097;DHT22;7125;48.106;11.544;2023-07-31T11:40:29;23.10;93.90
14097;DHT22;7125;48.106;11.544;2023-07-31T11:42:57;23.20;94.40
14097;DHT22;7125;48.106;11.544;2023-07-31T11:45:26;23.20;93.20
14097;DHT22;7125;48.106;11.544;2023-07-31T11:47:56;23.20;93.30
14097;DHT22;7125;48.106;11.544;2023-07-31T11:50:24;23.10;94.30
14097;DHT22;7125;48.106;11.544;2023-07-31T11:52:54;23.00;92.80
14097;DHT22;7125;48.106;11.544;2023-07-31T11:55:22;23.00;95.00
14097;DHT22;7125;48.106;11.544;2023-07-31T11:57:54;23.10;94.90
14097;DHT22;7125;48.106;11.544;2023-07-31T12:00:23;23.20;92.40
14097;DHT22;7125;48.106;11.544;2023-07-31T12:02:52;23.20;94.10
14097;DHT22;7125;48.106;11.544;2023-07-31T12:05:19;23.30;93.60
14097;DHT22;7125;48.106;11.544;2023-07-31T12:07:50;23.40;91.90
14097;DHT22;7125;48.106;11.544;2023-07-31T12:10:28;23.50;91.70
14097;DHT22;7125;48.106;11.544;2023-07-31T12:12:56;23.50;90.10
14097;DHT22;7125;48.106;11.544;2023-07-31T12:15:36;23.60;90.20
14097;DHT22;7125;48.106;11.544;2023-07-31T12:18:09;23.70;90.20
14097;DHT22;7125;48.106;11.544;2023-07-31T12:20:43;23.80;91.10
14097;DHT22;7125;48.106;11.544;2023-07-31T12:23:14;23.80;89.90
14097;DHT22;7125;48.106;11.544;2023-07-31T12:25:41;23.70;88.80
14097;DHT22;7125;48.106;11.544;2023-07-31T12:28:09;23.60;89.10
14097;DHT22;7125;48.106;11.544;2023-07-31T12:30:38;23.60;91.00
14097;DHT22;7125;48.106;11.544;2023-07-31T12:33:12;23.70;91.20
14097;DHT22;7125;48.106;11.544;2023-07-31T12:35:43;23.80;90.80
14097;DHT22;7125;48.106;11.544;2023-07-31T12:38:10;23.80;90.40
14097;DHT22;7125;48.106;11.544;2023-07-31T12:40:39;23.80;90.20
14097;DHT22;7125;48.106;11.544;2023-07-31T12:43:07;23.90;89.40
14097;DHT22;7125;48.106;11.544;2023-07-31T12:45:34;23.90;89.40
14097;DHT22;7125;48.106;11.544;2023-07-31T12:48:01;23.90;88.60
14097;DHT22;7125;48.106;11.544;2023-07-31T12:50:30;23.70;90.30
14097;DHT22;7125;48.106;11.544;2023-07-31T12:52:57;23.50;90.70
14097;DHT22;7125;48.106;11.544;2023-07-31T12:55:25;23.30;90.70
14097;DHT22;7125;48.106;11.544;2023-07-31T12:57:51;23.30;90.40
14097;DHT22;7125;48.106;11.544;2023-07-31T13:00:18;23.30;90.60
14097;DHT22;7125;48.106;11.544;2023-07-31T13:02:45;23.40;90.40
14097;DHT22;7125;48.106;11.544;2023-07-31T13:05:12;23.50;90.70
14097;DHT22;7125;48.106;11.544;2023-07-31T13:07:42;23.60;90.70
14097;DHT22;7125;48.106;11.544;2023-07-31T13:10:13;23.70;91.00
14097;DHT22;7125;48.106;11.544;2023-07-31T13:12:40;23.80;90.10
14097;DHT22;7125;48.106;11.544;2023-07-31T14:09:03;24.90;84.40
14097;DHT22;7125;48.106;11.544;2023-07-31T14:11:33;25.00;86.50
14097;DHT22;7125;48.106;11.544;2023-07-31T14:14:00;24.90;86.60
14097;DHT22;7125;48.106;11.544;2023-07-31T14:35:22;23.80;85.70
14097;DHT22;7125;48.106;11.544;2023-07-31T14:37:54;23.80;86.10
14097;DHT22;7125;48.106;11.544;2023-07-31T14:40:21;23.90;84.80
14097;DHT22;7125;48.106;11.544;2023-07-31T14:42:48;24.20;85.50
14097;DHT22;7125;48.106;11.544;2023-07-31T14:45:17;24.40;85.40
14097;DHT22;7125;48.106;11.544;2023-07-31T14:47:44;24.50;86.40
14097;DHT22;7125;48.106;11.544;2023-07-31T14:50:12;24.60;87.60
14097;DHT22;7125;48.106;11.544;2023-07-31T15:17:00;23.50;88.10
14097;DHT22;7125;48.106;11.544;2023-07-31T15:19:28;23.60;87.80
14097;DHT22;7125;48.106;11.544;2023-07-31T15:22:01;23.60;86.50
14097;DHT22;7125;48.106;11.544;2023-07-31T15:24:29;23.60;86.90
14097;DHT22;7125;48.106;11.544;2023-07-31T15:27:17;23.50;87.50
14097;DHT22;7125;48.106;11.544;2023-07-31T15:29:49;23.50;86.30
14097;DHT22;7125;48.106;11.544;2023-07-31T15:32:25;23.50;88.20
14097;DHT22;7125;48.106;11.544;2023-07-31T15:35:00;23.30;89.10
14097;DHT22;7125;48.106;11.544;2023-07-31T15:37:34;23.30;87.80
14097;DHT22;7125;48.106;11.544;2023-07-31T15:40:06;23.20;88.90
14097;DHT22;7125;48.106;11.544;2023-07-31T15:42:36;23.10;88.70
14097;DHT22;7125;48.106;11.544;2023-07-31T15:45:07;23.00;89.20
14097;DHT22;7125;48.106;11.544;2023-07-31T15:47:37;22.90;88.60
14097;DHT22;7125;48.106;11.544;2023-07-31T15:50:05;22.90;88.80
14097;DHT22;7125;48.106;11.544;2023-07-31T15:52:32;22.70;89.70
14097;DHT22;7125;48.106;11.544;2023-07-31T15:54:59;22.80;90.30
14097;DHT22;7125;48.106;11.544;2023-07-31T15:57:26;22.70;90.90
14097;DHT22;7125;48.106;11.544;2023-07-31T15:59:53;22.60;90.20
14097;DHT22;7125;48.106;11.544;2023-07-31T16:02:20;22.70;89.40
14097;DHT22;7125;48.106;11.544;2023-07-31T16:04:48;22.60;89.30
14097;DHT22;7125;48.106;11.544;2023-07-31T16:07:15;22.60;89.80
14097;DHT22;7125;48.106;11.544;2023-07-31T16:09:42;22.50;90.30
14097;DHT22;7125;48.106;11.544;2023-07-31T16:12:09;22.50;90.90
14097;DHT22;7125;48.106;11.544;2023-07-31T16:14:37;22.50;90.40
14097;DHT22;7125;48.106;11.544;2023-07-31T16:17:04;22.40;92.10
14097;DHT22;7125;48.106;11.544;2023-07-31T16:19:31;22.40;92.30
14097;DHT22;7125;48.106;11.544;2023-07-31T16:21:59;22.40;92.40
14097;DHT22;7125;48.106;11.544;2023-07-31T16:24:27;22.30;92.90
14097;DHT22;7125;48.106;11.544;2023-07-31T16:26:56;22.30;93.10
14097;DHT22;7125;48.106;11.544;2023-07-31T16:29:23;22.20;92.90
14097;DHT22;7125;48.106;11.544;2023-07-31T16:31:51;22.20;93.40
14097;DHT22;7125;48.106;11.544;2023-07-31T16:34:17;22.20;93.10
14097;DHT22;7125;48.106;11.544;2023-07-31T16:36:44;22.10;93.00
14097;DHT22;7125;48.106;11.544;2023-07-31T16:39:13;22.00;93.00
14097;DHT22;7125;48.106;11.544;2023-07-31T16:41:41;22.00;93.60
14097;DHT22;7125;48.106;11.544;2023-07-31T16:44:08;21.90;93.40
14097;DHT22;7125;48.106;11.544;2023-07-31T16:46:35;21.80;93.10
14097;DHT22;7125;48.106;11.544;2023-07-31T16:49:02;21.80;93.40
14097;DHT22;7125;48.106;11.544;2023-07-31T16:51:32;21.70;93.60
14097;DHT22;7125;48.106;11.544;2023-07-31T16:54:00;21.60;93.90
14097;DHT22;7125;48.106;11.544;2023-07-31T16:56:29;21.60;94.10
14097;DHT22;7125;48.106;11.544;2023-07-31T16:58:56;21.60;94.30
14097;DHT22;7125;48.106;11.544;2023-07-31T17:01:23;21.50;94.10
14097;DHT22;7125;48.106;11.544;2023-07-31T17:03:56;21.50;93.90
14097;DHT22;7125;48.106;11.544;2023-07-31T17:06:25;21.50;94.20
14097;DHT22;7125;48.106;11.544;2023-07-31T17:08:52;21.40;94.10
14097;DHT22;7125;48.106;11.544;2023-07-31T17:11:20;21.40;94.20
14097;DHT22;7125;48.106;11.544;2023-07-31T17:13:49;21.40;94.20
14097;DHT22;7125;48.106;11.544;2023-07-31T17:16:17;21.40;95.00